Terminal Aerodrome Forecast
Issued by NWS

Home | Current Version | Previous Version | Text Only | Print | Product List | Glossary On
Versions: 1 2 3 4 5 6 7 8 9 10 11 12 13
000
FTUS42 KGSP 272328
TAFAND
TAF
KAND 272328Z 2800/2824 31008KT P6SM FEW070
     FM280400 30004KT P6SM SKC
     FM281200 02004KT P6SM SKC
     FM282000 15003KT P6SM SKC=

USA.gov is the U.S. government's official web portal to all federal, state and local government web resources and services.